Time;durP1;ratioP1;P1;durP2;ratioP2;P2;SDS_P1;SDS_P2;PMS_P1;PMS_P2;Temp;Humidity;BMP_temperature;BMP_pressure;BME280_temperature;BME280_humidity;BME280_pressure;Samples;Min_cycle;Max_cycle;Signal;HPM_P1;HPM_P2
2021/09/13 00:00:20;;;;;;;;;;;;;;;;;;2108393;28;1400;-86
2021/09/13 00:01:21;;;;;;;;;;;;;;;;;;2100236;28;952;-86
2021/09/13 00:02:28;;;;;;;;;;;;;;;;;;2099773;28;1321;-86
2021/09/13 00:03:31;;;;;;;;;;;;;;;;;;2091596;28;1445;-86
2021/09/13 00:04:33;;;;;;;;;;;;;;;;;;2084054;28;1236;-86
2021/09/13 00:05:37;;;;;;;;;;;;;;;;;;2083226;28;1379;-86
2021/09/13 00:06:39;;;;;;;;;;;;;;;;;;2092217;28;1282;-83
2021/09/13 00:07:41;;;;;;;;;;;;;;;;;;2105205;28;1365;-88
2021/09/13 00:08:44;;;;;;;;;;;;;;;;;;2100059;28;1227;-87
2021/09/13 00:09:46;;;;;;;;;;;;;;;;;;2099175;28;1209;-89
2021/09/13 00:10:47;;;;;;;;;;;;;;;;;;2099881;28;1332;-89
2021/09/13 00:11:50;;;;;;;;;;;;;;;;;;2100416;28;1231;-88
2021/09/13 00:12:52;;;;;;;;;;;;;;;;;;2108433;28;1918;-88
2021/09/13 00:13:54;;;;;;;;;;;;;;;;;;2099493;28;1262;-88
2021/09/13 00:14:56;;;;;;;;;;;;;;;;;;2091767;28;1347;-88
2021/09/13 00:15:58;;;;;;;;;;;;;;;;;;2091525;28;1215;-87
2021/09/13 00:16:59;;;;;;;;;;;;;;;;;;2091381;28;1235;-87
2021/09/13 00:18:02;;;;;;;;;;;;;;;;;;2091555;28;1272;-87
2021/09/13 00:19:03;;;;;;;;;;;;;;;;;;2091587;28;1279;-88
2021/09/13 00:20:08;;;;;;;;;;;;;;;;;;2099657;28;2020;-87
2021/09/13 00:21:11;;;;;;;;;;;;;;;;;;2092372;28;1233;-89
2021/09/13 00:22:13;;;;;;;;;;;;;;;;;;2091378;28;1853;-88
2021/09/13 00:23:16;;;;;;;;;;;;;;;;;;2100100;28;1218;-88
2021/09/13 00:24:17;;;;;;;;;;;;;;;;;;2099895;28;1250;-89
2021/09/13 00:25:20;;;;;;;;;;;;;;;;;;2099327;28;1946;-89
2021/09/13 00:26:21;;;;;;;;;;;;;;;;;;2108388;28;827;-89
2021/09/13 00:27:24;;;;;;;;;;;;;;;;;;2116758;28;1238;-87
2021/09/13 00:28:25;;;;;;;;;;;;;;;;;;2108693;28;1222;-89
2021/09/13 00:29:27;;;;;;;;;;;;;;;;;;2108258;28;1436;-89
2021/09/13 00:30:28;;;;;;;;;;;;;;;;;;2107792;28;1342;-90
2021/09/13 00:31:31;;;;;;;;;;;;;;;;;;2091352;28;1215;-90
2021/09/13 00:32:33;;;;;;;;;;;;;;;;;;2091685;28;1993;-90
2021/09/13 00:33:36;;;;;;;;;;;;;;;;;;2091512;28;1271;-89
2021/09/13 00:34:38;;;;;;;;;;;;;;;;;;2092353;28;1346;-90
2021/09/13 00:35:40;;;;;;;;;;;;;;;;;;2091463;28;1267;-90
2021/09/13 00:36:45;;;;;;;;;;;;;;;;;;2091713;28;1349;-90
2021/09/13 00:37:47;;;;;;;;;;;;;;;;;;2091739;28;1557;-89
2021/09/13 00:38:50;;;;;;;;;;;;;;;;;;2092033;28;1366;-89
2021/09/13 00:39:51;;;;;;;;;;;;;;;;;;2091304;28;1509;-87
2021/09/13 00:40:52;;;;;;;;;;;;;;;;;;2099563;28;1413;-87
2021/09/13 00:41:57;;;;;;;;;;;;;;;;;;2091483;28;1373;-88
2021/09/13 00:43:01;;;;;;;;;;;;;;;;;;2099676;28;2050;-87
2021/09/13 00:44:03;;;;;;;;;;;;;;;;;;2107176;28;878;-86
2021/09/13 00:45:05;;;;;;;;;;;;;;;;;;2107726;28;1240;-85
2021/09/13 00:46:06;;;;;;;;;;;;;;;;;;2107386;28;1348;-87
2021/09/13 00:47:08;;;;;;;;;;;;;;;;;;2108365;28;1207;-87
2021/09/13 00:48:10;;;;;;;;;;;;;;;;;;2116262;28;1294;-86
2021/09/13 00:49:11;;;;;;;;;;;;;;;;;;2107712;28;1209;-86
2021/09/13 00:50:13;;;;;;;;;;;;;;;;;;2099684;28;878;-86
2021/09/13 00:51:15;;;;;;;;;;;;;;;;;;2108327;28;1239;-86
2021/09/13 00:52:19;;;;;;;;;;;;;;;;;;2108047;28;1898;-86
2021/09/13 00:53:20;;;;;;;;;;;;;;;;;;2116560;28;1275;-87
2021/09/13 00:54:22;;;;;;;;;;;;;;;;;;2116004;28;1343;-87
2021/09/13 00:55:24;;;;;;;;;;;;;;;;;;2098799;28;1266;-85
2021/09/13 00:56:26;;;;;;;;;;;;;;;;;;2100161;28;1233;-87
2021/09/13 00:57:27;;;;;;;;;;;;;;;;;;2099598;28;1322;-87
2021/09/13 00:58:30;;;;;;;;;;;;;;;;;;2091656;28;1270;-87
2021/09/13 00:59:30;;;;;;;;;;;;;;;;;;2108089;28;1254;-87
2021/09/13 01:00:32;;;;;;;;;;;;;;;;;;2099524;28;1273;-87
2021/09/13 01:01:34;;;;;;;;;;;;;;;;;;2100137;28;1507;-87
2021/09/13 01:02:36;;;;;;;;;;;;;;;;;;2107558;28;1380;-87
2021/09/13 01:03:37;;;;;;;;;;;;;;;;;;2090739;28;1227;-87
2021/09/13 01:04:39;;;;;;;;;;;;;;;;;;2090977;28;1216;-87
2021/09/13 01:05:42;;;;;;;;;;;;;;;;;;2099294;28;2143;-87
2021/09/13 01:06:44;;;;;;;;;;;;;;;;;;2099395;28;1299;-87
2021/09/13 01:07:48;;;;;;;;;;;;;;;;;;2099893;28;1195;-87
2021/09/13 01:08:49;;;;;;;;;;;;;;;;;;2099614;28;1241;-87
2021/09/13 01:09:51;;;;;;;;;;;;;;;;;;2091140;28;1187;-86
2021/09/13 01:10:52;;;;;;;;;;;;;;;;;;2090925;28;1372;-87
2021/09/13 01:11:54;;;;;;;;;;;;;;;;;;2107705;28;1450;-86
2021/09/13 01:12:55;;;;;;;;;;;;;;;;;;2107362;28;1965;-87
2021/09/13 01:13:58;;;;;;;;;;;;;;;;;;2091370;28;1282;-87
2021/09/13 01:14:59;;;;;;;;;;;;;;;;;;2107848;28;1283;-87
2021/09/13 01:16:03;;;;;;;;;;;;;;;;;;2108014;28;1224;-87
2021/09/13 01:17:04;;;;;;;;;;;;;;;;;;2091432;28;1325;-87
2021/09/13 01:18:09;;;;;;;;;;;;;;;;;;2091221;28;1234;-87
2021/09/13 01:19:10;;;;;;;;;;;;;;;;;;2091680;28;1163;-86
2021/09/13 01:20:13;;;;;;;;;;;;;;;;;;2107738;28;1399;-86
2021/09/13 01:21:15;;;;;;;;;;;;;;;;;;2099277;28;1514;-86
2021/09/13 01:22:20;;;;;;;;;;;;;;;;;;2093972;28;1098;-85
2021/09/13 01:23:34;;;;;;;;;;;;;;;;;;2099429;28;1307;-87
2021/09/13 01:24:53;;;;;;;;;;;;;;;;;;2085844;28;1150;-87
2021/09/13 01:25:54;;;;;;;;;;;;;;;;;;2102248;28;1215;-87
2021/09/13 01:27:00;;;;;;;;;;;;;;;;;;2107748;28;1314;-87
2021/09/13 01:28:02;;;;;;;;;;;;;;;;;;2099669;28;1375;-87
2021/09/13 01:29:05;;;;;;;;;;;;;;;;;;2099635;28;1392;-87
2021/09/13 01:30:10;;;;;;;;;;;;;;;;;;2107753;28;1365;-87
2021/09/13 01:31:11;;;;;;;;;;;;;;;;;;2107615;28;1453;-87
2021/09/13 01:32:19;;;;;;;;;;;;;;;;;;2099120;28;2143;-87
2021/09/13 01:33:32;;;;;;;;;;;;;;;;;;2097670;28;1293;-87
2021/09/13 01:34:34;;;;;;;;;;;;;;;;;;2083320;28;1422;-87
2021/09/13 01:35:35;;;;;;;;;;;;;;;;;;2097093;28;1238;-87
2021/09/13 01:36:37;;;;;;;;;;;;;;;;;;2099788;28;1359;-87
2021/09/13 01:37:43;;;;;;;;;;;;;;;;;;2100330;28;1405;-87
2021/09/13 01:38:49;;;;;;;;;;;;;;;;;;2107764;28;1226;-88
2021/09/13 01:39:50;;;;;;;;;;;;;;;;;;2099503;28;1246;-87
2021/09/13 01:40:53;;;;;;;;;;;;;;;;;;2107654;28;1432;-87
2021/09/13 01:41:54;;;;;;;;;;;;;;;;;;2098913;28;1288;-87
2021/09/13 01:43:01;;;;;;;;;;;;;;;;;;2083963;28;984;-87
2021/09/13 01:44:05;;;;;;;;;;;;;;;;;;2091483;28;1307;-87
2021/09/13 01:45:09;;;;;;;;;;;;;;;;;;2102016;28;1948;-87
2021/09/13 01:46:15;;;;;;;;;;;;;;;;;;2108837;28;1464;-87
2021/09/13 01:47:24;;;;;;;;;;;;;;;;;;2106959;28;1271;-87
2021/09/13 01:48:25;;;;;;;;;;;;;;;;;;2108018;28;1451;-88
2021/09/13 01:49:29;;;;;;;;;;;;;;;;;;2107471;28;1486;-87
2021/09/13 01:50:31;;;;;;;;;;;;;;;;;;2108117;28;2079;-88
2021/09/13 01:51:33;;;;;;;;;;;;;;;;;;2107648;28;1477;-88
2021/09/13 01:52:34;;;;;;;;;;;;;;;;;;2099232;28;2042;-87
2021/09/13 01:53:36;;;;;;;;;;;;;;;;;;2106998;28;1209;-87
2021/09/13 01:54:38;;;;;;;;;;;;;;;;;;2091046;28;1301;-88
2021/09/13 01:55:44;;;;;;;;;;;;;;;;;;2108093;28;1388;-88
2021/09/13 01:56:46;;;;;;;;;;;;;;;;;;2107763;28;1289;-88
2021/09/13 01:57:56;;;;;;;;;;;;;;;;;;2108693;28;1308;-87
2021/09/13 01:58:59;;;;;;;;;;;;;;;;;;2115613;28;863;-87
2021/09/13 02:00:01;;;;;;;;;;;;;;;;;;2099276;28;1301;-87
2021/09/13 02:01:04;;;;;;;;;;;;;;;;;;2091746;28;823;-87
2021/09/13 02:02:11;;;;;;;;;;;;;;;;;;2100664;28;1276;-87
2021/09/13 02:03:14;;;;;;;;;;;;;;;;;;2107747;28;1132;-87
2021/09/13 02:04:23;;;;;;;;;;;;;;;;;;2106802;28;1273;-87
2021/09/13 02:05:23;;;;;;;;;;;;;;;;;;2090430;28;2057;-86
2021/09/13 02:06:29;;;;;;;;;;;;;;;;;;2091686;28;1221;-87
2021/09/13 02:07:30;;;;;;;;;;;;;;;;;;2095316;28;1274;-86
2021/09/13 02:08:34;;;;;;;;;;;;;;;;;;2108153;28;1305;-87
2021/09/13 02:09:39;;;;;;;;;;;;;;;;;;2099250;28;1363;-87
2021/09/13 02:10:47;;;;;;;;;;;;;;;;;;2084065;28;1638;-86
2021/09/13 02:11:49;;;;;;;;;;;;;;;;;;2083161;28;1374;-87
2021/09/13 02:12:54;;;;;;;;;;;;;;;;;;2097756;28;1918;-87
2021/09/13 02:14:01;;;;;;;;;;;;;;;;;;2108498;28;1284;-88
2021/09/13 02:15:04;;;;;;;;;;;;;;;;;;2107488;28;1377;-88
2021/09/13 02:16:09;;;;;;;;;;;;;;;;;;2101867;28;1417;-88
2021/09/13 02:17:12;;;;;;;;;;;;;;;;;;2105558;28;1864;-88
2021/09/13 02:18:17;;;;;;;;;;;;;;;;;;2092978;28;1271;-88
2021/09/13 02:19:24;;;;;;;;;;;;;;;;;;2092606;28;1418;-87
2021/09/13 02:20:26;;;;;;;;;;;;;;;;;;2084363;28;1199;-89
2021/09/13 02:21:27;;;;;;;;;;;;;;;;;;2100417;28;1422;-88
2021/09/13 02:22:29;;;;;;;;;;;;;;;;;;2109332;28;1517;-88
2021/09/13 02:23:31;;;;;;;;;;;;;;;;;;2092743;28;1259;-87
2021/09/13 02:24:40;;;;;;;;;;;;;;;;;;2093546;28;1363;-88
2021/09/13 02:25:42;;;;;;;;;;;;;;;;;;2091980;28;1483;-88
2021/09/13 02:26:44;;;;;;;;;;;;;;;;;;2084596;28;1387;-88
2021/09/13 02:27:46;;;;;;;;;;;;;;;;;;2089765;28;2079;-88
2021/09/13 02:28:47;;;;;;;;;;;;;;;;;;2101175;28;1331;-88
2021/09/13 02:29:50;;;;;;;;;;;;;;;;;;2108551;28;1266;-88
2021/09/13 02:30:51;;;;;;;;;;;;;;;;;;2084906;28;1215;-87
2021/09/13 02:31:54;;;;;;;;;;;;;;;;;;2084301;28;1420;-88
2021/09/13 02:32:56;;;;;;;;;;;;;;;;;;2092076;28;1914;-88
2021/09/13 02:34:01;;;;;;;;;;;;;;;;;;2101321;28;1322;-87
2021/09/13 02:35:05;;;;;;;;;;;;;;;;;;2100916;28;1282;-88
2021/09/13 02:36:07;;;;;;;;;;;;;;;;;;2092478;28;1199;-87
2021/09/13 02:37:09;;;;;;;;;;;;;;;;;;2108995;28;2028;-85
2021/09/13 02:38:13;;;;;;;;;;;;;;;;;;2100474;28;1304;-87
2021/09/13 02:39:14;;;;;;;;;;;;;;;;;;2092596;28;1463;-87
2021/09/13 02:40:22;;;;;;;;;;;;;;;;;;2096886;28;1381;-87
2021/09/13 02:41:24;;;;;;;;;;;;;;;;;;2092373;28;1151;-87
2021/09/13 02:42:26;;;;;;;;;;;;;;;;;;2103546;28;1279;-90
2021/09/13 02:43:26;;;;;;;;;;;;;;;;;;2100225;28;1299;-89
2021/09/13 02:44:32;;;;;;;;;;;;;;;;;;2093233;28;1648;-89
2021/09/13 02:45:36;;;;;;;;;;;;;;;;;;2101087;28;1345;-89
2021/09/13 02:46:40;;;;;;;;;;;;;;;;;;2101179;28;1214;-89
2021/09/13 02:47:43;;;;;;;;;;;;;;;;;;2114492;28;2044;-89
2021/09/13 02:48:47;;;;;;;;;;;;;;;;;;2117052;28;1637;-89
2021/09/13 02:49:52;;;;;;;;;;;;;;;;;;2108333;28;1431;-89
2021/09/13 02:50:56;;;;;;;;;;;;;;;;;;2092359;28;1205;-89
2021/09/13 02:52:00;;;;;;;;;;;;;;;;;;2092793;28;2029;-89
2021/09/13 02:53:04;;;;;;;;;;;;;;;;;;2100612;28;1906;-89
2021/09/13 02:54:08;;;;;;;;;;;;;;;;;;2100110;28;1223;-89
2021/09/13 02:55:12;;;;;;;;;;;;;;;;;;2101228;28;1191;-89
2021/09/13 02:56:16;;;;;;;;;;;;;;;;;;2099997;28;1344;-90
2021/09/13 02:57:20;;;;;;;;;;;;;;;;;;2101076;28;1208;-89
2021/09/13 02:58:25;;;;;;;;;;;;;;;;;;2100642;28;1338;-89
2021/09/13 02:59:26;;;;;;;;;;;;;;;;;;2084148;28;1263;-89
2021/09/13 03:00:30;;;;;;;;;;;;;;;;;;2084376;28;1299;-89
2021/09/13 03:01:36;;;;;;;;;;;;;;;;;;2084988;28;1191;-89
2021/09/13 03:02:39;;;;;;;;;;;;;;;;;;2100537;28;1310;-89
2021/09/13 03:03:40;;;;;;;;;;;;;;;;;;2100237;28;1292;-89
2021/09/13 03:04:44;;;;;;;;;;;;;;;;;;2084682;28;1534;-89
2021/09/13 03:05:47;;;;;;;;;;;;;;;;;;2092680;28;1587;-89
2021/09/13 03:06:53;;;;;;;;;;;;;;;;;;2100474;28;1178;-89
2021/09/13 03:07:55;;;;;;;;;;;;;;;;;;2100443;28;2077;-87
2021/09/13 03:09:00;;;;;;;;;;;;;;;;;;2108694;28;1144;-87
2021/09/13 03:10:07;;;;;;;;;;;;;;;;;;2108956;28;1345;-88
2021/09/13 03:11:09;;;;;;;;;;;;;;;;;;2108599;28;1351;-89
2021/09/13 03:12:13;;;;;;;;;;;;;;;;;;2092419;28;1295;-87
2021/09/13 03:13:20;;;;;;;;;;;;;;;;;;2101459;28;1967;-87
2021/09/13 03:14:21;;;;;;;;;;;;;;;;;;2109011;28;1197;-87
2021/09/13 03:15:23;;;;;;;;;;;;;;;;;;2108562;28;1317;-88
2021/09/13 03:16:27;;;;;;;;;;;;;;;;;;2100690;28;1310;-87
2021/09/13 03:17:30;;;;;;;;;;;;;;;;;;2100301;28;1342;-88
2021/09/13 03:18:33;;;;;;;;;;;;;;;;;;2108607;28;1274;-88
2021/09/13 03:19:37;;;;;;;;;;;;;;;;;;2109517;28;1322;-87
2021/09/13 03:20:40;;;;;;;;;;;;;;;;;;2108456;28;1331;-87
2021/09/13 03:21:42;;;;;;;;;;;;;;;;;;2092232;28;1245;-88
2021/09/13 03:22:47;;;;;;;;;;;;;;;;;;2092313;28;1911;-88
2021/09/13 03:23:49;;;;;;;;;;;;;;;;;;2099918;28;1291;-88
2021/09/13 03:24:49;;;;;;;;;;;;;;;;;;2091763;28;1331;-87
2021/09/13 03:25:51;;;;;;;;;;;;;;;;;;2091767;28;1368;-88
2021/09/13 03:26:52;;;;;;;;;;;;;;;;;;2099270;28;1215;-88
2021/09/13 03:27:58;;;;;;;;;;;;;;;;;;2084026;28;2162;-87
2021/09/13 03:29:01;;;;;;;;;;;;;;;;;;2084915;28;1403;-87
2021/09/13 03:30:03;;;;;;;;;;;;;;;;;;2102545;28;1378;-87
2021/09/13 03:31:04;;;;;;;;;;;;;;;;;;2100062;28;1365;-88
2021/09/13 03:32:08;;;;;;;;;;;;;;;;;;2108768;28;1463;-88
2021/09/13 03:33:11;;;;;;;;;;;;;;;;;;2107652;28;1985;-88
2021/09/13 03:34:14;;;;;;;;;;;;;;;;;;2100188;28;1255;-88
2021/09/13 03:35:15;;;;;;;;;;;;;;;;;;2108074;28;1342;-88
2021/09/13 03:36:17;;;;;;;;;;;;;;;;;;2091674;28;1277;-88
2021/09/13 03:37:18;;;;;;;;;;;;;;;;;;2100245;28;1310;-88
2021/09/13 03:38:20;;;;;;;;;;;;;;;;;;2100287;28;1373;-88
2021/09/13 03:39:21;;;;;;;;;;;;;;;;;;2108473;28;1610;-88
2021/09/13 03:40:23;;;;;;;;;;;;;;;;;;2108045;28;1298;-94
2021/09/13 03:41:26;;;;;;;;;;;;;;;;;;2108312;28;1155;-93
2021/09/13 03:42:28;;;;;;;;;;;;;;;;;;2107804;28;1319;-94
2021/09/13 03:43:42;;;;;;;;;;;;;;;;;;2100139;28;1219;-94
2021/09/13 03:44:45;;;;;;;;;;;;;;;;;;2097932;28;1416;-94
2021/09/13 03:46:38;;;;;;;;;;;;;;;;;;2088251;28;1270;-95
2021/09/13 03:48:20;;;;;;;;;;;;;;;;;;2094454;28;1440;-95
2021/09/13 03:50:48;;;;;;;;;;;;;;;;;;2095874;28;1293;-94
2021/09/13 03:51:57;;;;;;;;;;;;;;;;;;2099943;28;864;-92
2021/09/13 03:52:59;;;;;;;;;;;;;;;;;;2099636;28;2054;-94
2021/09/13 03:54:04;;;;;;;;;;;;;;;;;;2091542;28;1902;-94
2021/09/13 03:55:06;;;;;;;;;;;;;;;;;;2092444;28;1309;-94
2021/09/13 03:56:09;;;;;;;;;;;;;;;;;;2091482;28;1356;-95
2021/09/13 03:57:09;;;;;;;;;;;;;;;;;;2099974;28;1246;-94
2021/09/13 03:58:12;;;;;;;;;;;;;;;;;;2099659;28;1212;-94
2021/09/13 03:59:16;;;;;;;;;;;;;;;;;;2099801;28;1243;-94
2021/09/13 04:00:20;;;;;;;;;;;;;;;;;;2115417;28;1322;-93
2021/09/13 04:01:25;;;;;;;;;;;;;;;;;;2107583;28;1409;-92
2021/09/13 04:02:30;;;;;;;;;;;;;;;;;;2091821;28;1405;-93
2021/09/13 04:03:42;;;;;;;;;;;;;;;;;;2092366;28;1322;-94
2021/09/13 04:04:48;;;;;;;;;;;;;;;;;;2093275;28;1433;-94
2021/09/13 04:05:52;;;;;;;;;;;;;;;;;;2108494;28;1287;-94
2021/09/13 04:07:19;;;;;;;;;;;;;;;;;;2103835;28;2064;-94
2021/09/13 04:08:57;;;;;;;;;;;;;;;;;;2091961;28;1453;-94
2021/09/13 04:10:28;;;;;;;;;;;;;;;;;;2085591;28;2113;-94
2021/09/13 04:11:54;;;;;;;;;;;;;;;;;;2101585;28;1483;-94
2021/09/13 04:17:12;;;;;;;;;;;;;;;;;;2083119;28;918;-93
2021/09/13 04:18:33;;;;;;;;;;;;;;;;;;2100836;28;634;-94
2021/09/13 04:20:01;;;;;;;;;;;;;;;;;;2097925;28;2083;-95
2021/09/13 04:21:16;;;;;;;;;;;;;;;;;;2108527;28;1292;-95
2021/09/13 04:22:47;;;;;;;;;;;;;;;;;;2103795;28;1141;-94
2021/09/13 04:23:58;;;;;;;;;;;;;;;;;;2099775;28;1294;-95
2021/09/13 04:25:20;;;;;;;;;;;;;;;;;;2091880;28;677;-94
2021/09/13 04:26:31;;;;;;;;;;;;;;;;;;2100879;28;1350;-94
2021/09/13 04:27:52;;;;;;;;;;;;;;;;;;2105009;28;602;-94
2021/09/13 04:29:07;;;;;;;;;;;;;;;;;;2099854;28;1323;-94
2021/09/13 04:32:13;;;;;;;;;;;;;;;;;;2106246;28;1101;-90
2021/09/13 04:33:35;;;;;;;;;;;;;;;;;;2100183;28;1979;-90
2021/09/13 04:34:56;;;;;;;;;;;;;;;;;;2092999;28;1074;-88
2021/09/13 04:36:11;;;;;;;;;;;;;;;;;;2099730;28;1397;-88
2021/09/13 04:37:32;;;;;;;;;;;;;;;;;;2101625;28;1307;-84
2021/09/13 04:38:47;;;;;;;;;;;;;;;;;;2107956;28;1385;-87
2021/09/13 04:40:10;;;;;;;;;;;;;;;;;;2104837;28;1141;-87
2021/09/13 04:41:42;;;;;;;;;;;;;;;;;;2096809;28;1305;-89
2021/09/13 04:43:03;;;;;;;;;;;;;;;;;;2099629;28;1474;-89
2021/09/13 04:44:28;;;;;;;;;;;;;;;;;;2083030;28;1364;-88
2021/09/13 04:45:49;;;;;;;;;;;;;;;;;;2091991;28;606;-88
2021/09/13 04:47:10;;;;;;;;;;;;;;;;;;2093233;28;1989;-88
2021/09/13 04:48:31;;;;;;;;;;;;;;;;;;2099926;28;1252;-88
2021/09/13 04:49:50;;;;;;;;;;;;;;;;;;2104571;28;1252;-88
2021/09/13 04:51:17;;;;;;;;;;;;;;;;;;2101181;28;1331;-88
2021/09/13 04:52:37;;;;;;;;;;;;;;;;;;2099858;28;1250;-88
2021/09/13 04:53:39;;;;;;;;;;;;;;;;;;2091031;28;1979;-89
2021/09/13 04:54:46;;;;;;;;;;;;;;;;;;2092042;28;1451;-89
2021/09/13 04:55:48;;;;;;;;;;;;;;;;;;2083617;28;1524;-88
2021/09/13 04:56:54;;;;;;;;;;;;;;;;;;2084974;28;1332;-88
2021/09/13 04:57:55;;;;;;;;;;;;;;;;;;2090955;28;1893;-89
2021/09/13 04:59:01;;;;;;;;;;;;;;;;;;2091431;28;1391;-89
2021/09/13 05:00:05;;;;;;;;;;;;;;;;;;2092529;28;1486;-88
2021/09/13 05:01:14;;;;;;;;;;;;;;;;;;2099603;28;1603;-88
2021/09/13 05:02:18;;;;;;;;;;;;;;;;;;2090089;28;1687;-88
2021/09/13 05:03:22;;;;;;;;;;;;;;;;;;2077649;28;1632;-89
2021/09/13 05:04:22;;;;;;;;;;;;;;;;;;2082678;28;1323;-88
2021/09/13 05:05:34;;;;;;;;;;;;;;;;;;2107549;28;1699;-89
2021/09/13 05:06:38;;;;;;;;;;;;;;;;;;2106440;28;1354;-89
2021/09/13 05:07:42;;;;;;;;;;;;;;;;;;2099258;28;1401;-89
2021/09/13 05:09:07;;;;;;;;;;;;;;;;;;2100037;28;1351;-90
2021/09/13 05:11:57;;;;;;;;;;;;;;;;;;2092521;28;1375;-90
2021/09/13 05:13:05;;;;;;;;;;;;;;;;;;2091361;28;1450;-90
2021/09/13 05:14:06;;;;;;;;;;;;;;;;;;2089362;28;1910;-90
2021/09/13 05:15:12;;;;;;;;;;;;;;;;;;2091073;28;1364;-90
2021/09/13 05:16:38;;;;;;;;;;;;;;;;;;2092565;28;1381;-90
2021/09/13 05:17:45;;;;;;;;;;;;;;;;;;2095887;28;1570;-89
2021/09/13 05:18:50;;;;;;;;;;;;;;;;;;2102966;28;1410;-89
2021/09/13 05:20:07;;;;;;;;;;;;;;;;;;2112413;28;1676;-91
2021/09/13 05:21:09;;;;;;;;;;;;;;;;;;2102731;28;1417;-88
2021/09/13 05:22:17;;;;;;;;;;;;;;;;;;2095671;28;1664;-87
2021/09/13 05:23:18;;;;;;;;;;;;;;;;;;2097664;28;1437;-89
2021/09/13 05:24:27;;;;;;;;;;;;;;;;;;2096751;28;1589;-88
2021/09/13 05:25:34;;;;;;;;;;;;;;;;;;2100245;28;1323;-90
2021/09/13 05:27:01;;;;;;;;;;;;;;;;;;2099983;28;1421;-90
2021/09/13 05:28:29;;;;;;;;;;;;;;;;;;2101605;28;1408;-91
2021/09/13 05:30:20;;;;;;;;;;;;;;;;;;2091453;28;1279;-89
2021/09/13 05:32:59;;;;;;;;;;;;;;;;;;2080373;28;1616;-91
2021/09/13 05:34:08;;;;;;;;;;;;;;;;;;2069888;28;1906;-91
2021/09/13 05:35:12;;;;;;;;;;;;;;;;;;2074498;28;1483;-90
2021/09/13 05:36:15;;;;;;;;;;;;;;;;;;2091714;28;1366;-89
2021/09/13 05:37:15;;;;;;;;;;;;;;;;;;2092051;28;2039;-89
2021/09/13 05:38:32;;;;;;;;;;;;;;;;;;2090704;28;1386;-88
2021/09/13 05:39:39;;;;;;;;;;;;;;;;;;2093501;28;1539;-90
2021/09/13 05:40:51;;;;;;;;;;;;;;;;;;2098938;28;1421;-89
2021/09/13 05:42:02;;;;;;;;;;;;;;;;;;2082263;28;1336;-91
2021/09/13 05:43:10;;;;;;;;;;;;;;;;;;2070981;28;1320;-91
2021/09/13 05:44:16;;;;;;;;;;;;;;;;;;2074617;28;1328;-91
2021/09/13 05:45:22;;;;;;;;;;;;;;;;;;2084299;28;1112;-91
2021/09/13 05:46:23;;;;;;;;;;;;;;;;;;2107372;28;1247;-89
2021/09/13 05:47:28;;;;;;;;;;;;;;;;;;2098960;28;1506;-90
2021/09/13 05:48:31;;;;;;;;;;;;;;;;;;2082938;28;1351;-90
2021/09/13 05:51:01;;;;;;;;;;;;;;;;;;2080526;28;1430;-90
2021/09/13 05:52:04;;;;;;;;;;;;;;;;;;2102190;28;1370;-88
2021/09/13 05:53:18;;;;;;;;;;;;;;;;;;2102855;28;1473;-89
2021/09/13 05:54:22;;;;;;;;;;;;;;;;;;2100105;28;1918;-90
2021/09/13 05:55:26;;;;;;;;;;;;;;;;;;2098157;28;1656;-90
2021/09/13 05:56:33;;;;;;;;;;;;;;;;;;2117537;28;1325;-90
2021/09/13 05:57:35;;;;;;;;;;;;;;;;;;2112221;28;1349;-90
2021/09/13 05:58:36;;;;;;;;;;;;;;;;;;2099633;28;1363;-90
2021/09/13 05:59:52;;;;;;;;;;;;;;;;;;2085920;28;1303;-90
2021/09/13 06:00:56;;;;;;;;;;;;;;;;;;2111025;28;1321;-89
2021/09/13 06:02:08;;;;;;;;;;;;;;;;;;2105605;28;1754;-90
2021/09/13 06:03:14;;;;;;;;;;;;;;;;;;2086190;28;1397;-90
2021/09/13 06:04:37;;;;;;;;;;;;;;;;;;2090610;28;1506;-90
2021/09/13 06:05:40;;;;;;;;;;;;;;;;;;2086351;28;2018;-90
2021/09/13 06:06:52;;;;;;;;;;;;;;;;;;2093555;28;1410;-90
2021/09/13 06:07:53;;;;;;;;;;;;;;;;;;2109307;28;1421;-89
2021/09/13 06:08:57;;;;;;;;;;;;;;;;;;2109201;28;1422;-88
2021/09/13 06:10:00;;;;;;;;;;;;;;;;;;2092359;28;1288;-89
2021/09/13 06:11:02;;;;;;;;;;;;;;;;;;2092679;28;1353;-90
2021/09/13 06:12:04;;;;;;;;;;;;;;;;;;2091726;28;1913;-90
2021/09/13 06:13:23;;;;;;;;;;;;;;;;;;2086987;28;1210;-89
2021/09/13 06:14:28;;;;;;;;;;;;;;;;;;2085151;28;1910;-90
2021/09/13 06:15:50;;;;;;;;;;;;;;;;;;2097712;28;1188;-88
2021/09/13 06:16:56;;;;;;;;;;;;;;;;;;2084360;28;1192;-88
2021/09/13 06:17:58;;;;;;;;;;;;;;;;;;2093100;28;1192;-88
2021/09/13 06:18:59;;;;;;;;;;;;;;;;;;2092371;28;1392;-89
2021/09/13 06:20:08;;;;;;;;;;;;;;;;;;2092145;28;1353;-88
2021/09/13 06:21:09;;;;;;;;;;;;;;;;;;2100255;28;1355;-88
2021/09/13 06:23:45;;;;;;;;;;;;;;;;;;2099602;28;1416;-89
2021/09/13 06:24:49;;;;;;;;;;;;;;;;;;2092789;28;1307;-89
2021/09/13 06:26:07;;;;;;;;;;;;;;;;;;2083963;28;1213;-89
2021/09/13 06:27:08;;;;;;;;;;;;;;;;;;2088308;28;1835;-89
2021/09/13 06:28:10;;;;;;;;;;;;;;;;;;2108876;28;1425;-89
2021/09/13 06:29:15;;;;;;;;;;;;;;;;;;2109083;28;1288;-90
2021/09/13 06:30:17;;;;;;;;;;;;;;;;;;2092115;28;1406;-88
2021/09/13 06:31:18;;;;;;;;;;;;;;;;;;2092548;28;1205;-89
2021/09/13 06:32:22;;;;;;;;;;;;;;;;;;2100386;28;1860;-85
2021/09/13 06:33:30;;;;;;;;;;;;;;;;;;2085110;28;1274;-89
2021/09/13 06:34:33;;;;;;;;;;;;;;;;;;2076855;28;1910;-88
2021/09/13 06:35:37;;;;;;;;;;;;;;;;;;2076570;28;1347;-88
2021/09/13 06:36:51;;;;;;;;;;;;;;;;;;2094793;28;1216;-89
2021/09/13 06:37:55;;;;;;;;;;;;;;;;;;2098817;28;1151;-88
2021/09/13 06:38:57;;;;;;;;;;;;;;;;;;2101310;28;1195;-87
2021/09/13 06:39:59;;;;;;;;;;;;;;;;;;2108389;28;1203;-87
2021/09/13 06:41:12;;;;;;;;;;;;;;;;;;2109228;28;1269;-89
2021/09/13 06:42:13;;;;;;;;;;;;;;;;;;2107376;28;1334;-88
2021/09/13 06:43:16;;;;;;;;;;;;;;;;;;2100441;28;1271;-90
2021/09/13 06:44:26;;;;;;;;;;;;;;;;;;2099794;28;1283;-88
2021/09/13 06:45:28;;;;;;;;;;;;;;;;;;2089405;28;2101;-88
2021/09/13 06:49:40;;;;;;;;;;;;;;;;;;2109015;28;1391;-90
2021/09/13 06:50:45;;;;;;;;;;;;;;;;;;2100165;28;1319;-89
2021/09/13 06:51:47;;;;;;;;;;;;;;;;;;2084240;28;1167;-90
2021/09/13 06:52:49;;;;;;;;;;;;;;;;;;2092351;28;1401;-89
2021/09/13 06:53:51;;;;;;;;;;;;;;;;;;2100649;28;1487;-89
2021/09/13 06:54:51;;;;;;;;;;;;;;;;;;2109130;28;2058;-89
2021/09/13 06:55:53;;;;;;;;;;;;;;;;;;2108521;28;1270;-89
2021/09/13 06:56:56;;;;;;;;;;;;;;;;;;2092496;28;965;-89
2021/09/13 06:57:59;;;;;;;;;;;;;;;;;;2083755;28;1274;-89
2021/09/13 06:59:00;;;;;;;;;;;;;;;;;;2084324;28;1294;-89
2021/09/13 07:00:05;;;;;;;;;;;;;;;;;;2100457;28;1424;-89
2021/09/13 07:01:06;;;;;;;;;;;;;;;;;;2092488;28;1354;-88
2021/09/13 07:02:09;;;;;;;;;;;;;;;;;;2077860;28;1330;-90
2021/09/13 07:03:10;;;;;;;;;;;;;;;;;;2100178;28;1473;-89
2021/09/13 07:04:15;;;;;;;;;;;;;;;;;;2100239;28;1382;-88
2021/09/13 07:05:30;;;;;;;;;;;;;;;;;;2100224;28;1345;-88
2021/09/13 07:06:42;;;;;;;;;;;;;;;;;;2098882;28;1462;-89
2021/09/13 07:07:46;;;;;;;;;;;;;;;;;;2108748;28;1320;-90
2021/09/13 07:08:48;;;;;;;;;;;;;;;;;;2109153;28;1274;-90
2021/09/13 07:09:50;;;;;;;;;;;;;;;;;;2108597;28;2031;-89
2021/09/13 07:10:54;;;;;;;;;;;;;;;;;;2108641;28;1225;-87
2021/09/13 07:11:56;;;;;;;;;;;;;;;;;;2084217;28;1272;-91
2021/09/13 07:13:01;;;;;;;;;;;;;;;;;;2084463;28;1303;-91
2021/09/13 07:14:05;;;;;;;;;;;;;;;;;;2101555;28;1517;-92
2021/09/13 07:15:21;;;;;;;;;;;;;;;;;;2107722;28;1910;-90
2021/09/13 07:16:22;;;;;;;;;;;;;;;;;;2100550;28;1251;-86
2021/09/13 07:17:25;;;;;;;;;;;;;;;;;;2100269;28;1324;-88
2021/09/13 07:18:35;;;;;;;;;;;;;;;;;;2100523;28;1196;-90
2021/09/13 07:22:14;;;;;;;;;;;;;;;;;;2104707;28;1328;-91
2021/09/13 07:23:21;;;;;;;;;;;;;;;;;;2099756;28;1208;-92
2021/09/13 07:24:22;;;;;;;;;;;;;;;;;;2084301;28;1322;-89
2021/09/13 07:25:27;;;;;;;;;;;;;;;;;;2088637;28;1895;-90
2021/09/13 07:26:31;;;;;;;;;;;;;;;;;;2092362;28;1355;-92
2021/09/13 07:27:34;;;;;;;;;;;;;;;;;;2091636;28;1227;-90
2021/09/13 07:28:39;;;;;;;;;;;;;;;;;;2108733;28;1554;-91
2021/09/13 07:30:07;;;;;;;;;;;;;;;;;;2107698;28;1325;-93
2021/09/13 07:31:23;;;;;;;;;;;;;;;;;;2087295;28;1566;-89
2021/09/13 07:32:49;;;;;;;;;;;;;;;;;;2102184;28;1387;-89
2021/09/13 07:34:12;;;;;;;;;;;;;;;;;;2094159;28;1210;-90
2021/09/13 07:35:29;;;;;;;;;;;;;;;;;;2077133;28;1981;-88
2021/09/13 07:36:32;;;;;;;;;;;;;;;;;;2082386;28;1294;-88
2021/09/13 07:37:40;;;;;;;;;;;;;;;;;;2099270;28;1910;-90
2021/09/13 07:38:45;;;;;;;;;;;;;;;;;;2075596;28;1210;-87
2021/09/13 07:39:50;;;;;;;;;;;;;;;;;;2079698;28;1343;-89
2021/09/13 07:40:52;;;;;;;;;;;;;;;;;;2099931;28;1246;-88
2021/09/13 07:41:57;;;;;;;;;;;;;;;;;;2091228;28;907;-87
2021/09/13 07:42:59;;;;;;;;;;;;;;;;;;2091710;28;1853;-88
2021/09/13 07:44:00;;;;;;;;;;;;;;;;;;2091821;28;1187;-88
2021/09/13 07:45:02;;;;;;;;;;;;;;;;;;2092646;28;2068;-89
2021/09/13 07:46:03;;;;;;;;;;;;;;;;;;2091479;28;1430;-91
2021/09/13 07:47:10;;;;;;;;;;;;;;;;;;2075030;28;1299;-89
2021/09/13 07:48:26;;;;;;;;;;;;;;;;;;2083815;28;1306;-89
2021/09/13 07:49:27;;;;;;;;;;;;;;;;;;2084546;28;1734;-91
2021/09/13 07:50:36;;;;;;;;;;;;;;;;;;2091825;28;1418;-90
2021/09/13 07:51:37;;;;;;;;;;;;;;;;;;2083623;28;1362;-91
2021/09/13 07:52:47;;;;;;;;;;;;;;;;;;2075592;28;1200;-91
2021/09/13 07:53:48;;;;;;;;;;;;;;;;;;2084529;28;1638;-88
2021/09/13 07:54:53;;;;;;;;;;;;;;;;;;2099638;28;1898;-89
2021/09/13 07:55:57;;;;;;;;;;;;;;;;;;2098005;28;1406;-91
2021/09/13 07:56:58;;;;;;;;;;;;;;;;;;2092571;28;1331;-88
2021/09/13 07:58:00;;;;;;;;;;;;;;;;;;2091673;28;1997;-93